Time;durP1;ratioP1;P1;durP2;ratioP2;P2;SDS_P1;SDS_P2;PMS_P1;PMS_P2;Temp;Humidity;BMP_temperature;BMP_pressure;BME280_temperature;BME280_humidity;BME280_pressure;Samples;Min_cycle;Max_cycle;Signal;HPM_P1;HPM_P2
2020/12/31 00:02:13;;;;;;;5.20;4.00;;;;;;;12.26;57.88;99212.57;1781411;79;21621;-69
2020/12/31 00:04:41;;;;;;;4.40;4.00;;;;;;;12.27;57.92;99224.07;1762901;79;21371;-69
2020/12/31 00:07:09;;;;;;;5.30;3.77;;;;;;;12.27;57.91;99217.41;1772514;79;21358;-69
2020/12/31 00:09:37;;;;;;;6.33;4.30;;;;;;;12.27;57.91;99211.57;1795675;79;21154;-69
2020/12/31 00:12:07;;;;;;;4.50;3.77;;;;;;;12.28;57.93;99219.05;1777756;79;21151;-69
2020/12/31 00:14:34;;;;;;;6.03;4.62;;;;;;;12.28;57.94;99221.19;1804775;78;21127;-69
2020/12/31 00:17:02;;;;;;;5.60;4.30;;;;;;;12.27;57.92;99210.23;1772359;79;21242;-69
2020/12/31 00:19:29;;;;;;;5.30;4.58;;;;;;;12.28;57.93;99203.06;1742306;82;21163;-68
2020/12/31 00:21:57;;;;;;;5.50;4.25;;;;;;;12.29;57.95;99204.72;1813173;79;21179;-70
2020/12/31 00:24:24;;;;;;;6.10;4.35;;;;;;;12.27;57.95;99211.57;1735227;82;21594;-68
2020/12/31 00:26:51;;;;;;;4.70;4.05;;;;;;;12.28;57.94;99214.53;1740320;81;21141;-69
2020/12/31 00:29:18;;;;;;;6.80;4.78;;;;;;;12.29;57.95;99219.38;1732462;81;21378;-69
2020/12/31 00:31:46;;;;;;;5.00;4.25;;;;;;;12.28;57.96;99209.20;1733324;81;21169;-70
2020/12/31 00:34:13;;;;;;;5.42;4.30;;;;;;;12.29;57.95;99216.20;1731305;81;21597;-68
2020/12/31 00:36:40;;;;;;;4.92;4.17;;;;;;;12.28;57.97;99215.86;1732682;81;21171;-69
2020/12/31 00:39:07;;;;;;;7.28;4.40;;;;;;;12.30;57.96;99217.83;1732149;81;21153;-70
2020/12/31 00:41:35;;;;;;;6.10;4.17;;;;;;;12.30;57.97;99218.34;1731276;81;21209;-69
2020/12/31 00:44:04;;;;;;;5.78;4.12;;;;;;;12.31;57.97;99215.49;1736606;81;22069;-69
2020/12/31 00:46:31;;;;;;;8.05;4.30;;;;;;;12.31;57.96;99219.48;1754848;81;21164;-70
2020/12/31 00:48:58;;;;;;;5.95;4.72;;;;;;;12.31;57.97;99217.34;1731367;81;21153;-68
2020/12/31 00:51:26;;;;;;;4.72;3.70;;;;;;;12.32;57.97;99213.64;1731284;81;21137;-69
2020/12/31 00:53:54;;;;;;;4.87;4.40;;;;;;;12.31;57.97;99224.81;1731435;81;21351;-69
2020/12/31 00:56:23;;;;;;;5.47;4.47;;;;;;;12.32;57.97;99219.82;1731337;81;21137;-69
2020/12/31 00:58:52;;;;;;;4.83;4.28;;;;;;;12.33;57.97;99232.62;1732789;81;21210;-69
2020/12/31 01:01:19;;;;;;;6.80;4.80;;;;;;;12.33;57.98;99225.45;1760274;81;21187;-68
2020/12/31 01:03:47;;;;;;;5.00;4.50;;;;;;;12.33;58.02;99224.63;1734144;81;21136;-69
2020/12/31 01:06:15;;;;;;;5.20;4.05;;;;;;;12.32;58.01;99223.81;1760221;79;23589;-69
2020/12/31 01:08:42;;;;;;;5.58;4.40;;;;;;;12.34;58.01;99224.92;1737871;81;21118;-69
2020/12/31 01:11:10;;;;;;;5.78;4.53;;;;;;;12.34;57.99;99222.27;1790642;79;21182;-69
2020/12/31 01:13:38;;;;;;;5.65;4.85;;;;;;;12.35;57.99;99223.92;1734633;81;21154;-69
2020/12/31 01:16:09;;;;;;;5.62;4.58;;;;;;;12.34;57.99;99223.11;1734011;81;21322;-69
2020/12/31 01:18:37;;;;;;;5.53;4.58;;;;;;;12.34;58.00;99221.78;1788218;79;21193;-69
2020/12/31 01:21:11;;;;;;;5.10;4.20;;;;;;;12.34;58.01;99220.45;1782852;78;21214;-69
2020/12/31 01:23:38;;;;;;;5.97;4.20;;;;;;;12.34;58.01;99227.11;1741831;82;21168;-69
2020/12/31 01:26:07;;;;;;;4.87;4.37;;;;;;;12.34;58.02;99224.92;1725669;82;21824;-70
2020/12/31 01:28:35;;;;;;;5.50;4.30;;;;;;;12.34;58.03;99229.77;1811054;79;21128;-69
2020/12/31 01:31:08;;;;;;;7.08;4.55;;;;;;;12.34;58.07;99221.78;1741810;81;23637;-68
2020/12/31 01:33:39;;;;;;;5.40;4.72;;;;;;;12.35;58.05;99227.92;1753423;81;24622;-69
2020/12/31 01:36:07;;;;;;;5.50;4.08;;;;;;;12.35;58.05;99221.27;1734819;81;21145;-69
2020/12/31 01:38:35;;;;;;;6.08;4.40;;;;;;;12.35;58.08;99219.93;1761002;81;21122;-68
2020/12/31 01:41:02;;;;;;;7.33;5.30;;;;;;;12.34;58.09;99221.78;1791104;79;21148;-69
2020/12/31 01:43:29;;;;;;;5.67;4.10;;;;;;;12.35;58.09;99220.75;1776774;79;21149;-69
2020/12/31 01:45:57;;;;;;;5.80;4.85;;;;;;;12.35;58.12;99212.75;1770524;79;21167;-69
2020/12/31 01:48:25;;;;;;;4.78;4.28;;;;;;;12.34;58.13;99217.78;1779978;79;21181;-69
2020/12/31 01:50:52;;;;;;;7.53;5.75;;;;;;;12.36;58.13;99225.56;1796753;79;21810;-69
2020/12/31 01:53:21;;;;;;;5.87;4.22;;;;;;;12.36;58.14;99223.74;1742567;80;21163;-69
2020/12/31 01:55:49;;;;;;;5.62;4.37;;;;;;;12.36;58.12;99230.41;1767860;79;22268;-68
2020/12/31 01:58:17;;;;;;;6.75;5.30;;;;;;;12.37;58.14;99218.72;1778972;79;21179;-69
2020/12/31 02:00:46;;;;;;;5.33;3.90;;;;;;;12.38;58.13;99215.53;1798174;79;21152;-68
2020/12/31 02:03:13;;;;;;;5.15;4.17;;;;;;;12.37;58.12;99213.91;1781459;79;21133;-68
2020/12/31 02:05:40;;;;;;;6.00;4.42;;;;;;;12.38;58.13;99209.72;1779388;79;21153;-68
2020/12/31 02:08:08;;;;;;;6.12;4.35;;;;;;;12.38;58.14;99211.05;1788006;79;21378;-68
2020/12/31 02:10:35;;;;;;;6.28;4.67;;;;;;;12.38;58.14;99205.72;1769775;79;21169;-68
2020/12/31 02:13:02;;;;;;;5.47;4.20;;;;;;;12.39;58.14;99209.20;1779013;79;21149;-69
2020/12/31 02:15:29;;;;;;;7.47;4.03;;;;;;;12.39;58.14;99207.87;1778941;79;21149;-69
2020/12/31 02:17:57;;;;;;;4.87;4.15;;;;;;;12.39;58.13;99202.03;1800349;79;21151;-69
2020/12/31 02:20:24;;;;;;;6.47;4.85;;;;;;;12.38;58.14;99196.41;1802131;79;21985;-69
2020/12/31 02:22:51;;;;;;;5.90;4.37;;;;;;;12.40;58.16;99198.88;1778749;79;21980;-69
2020/12/31 02:25:18;;;;;;;5.85;4.60;;;;;;;12.40;58.16;99197.55;1795594;79;21119;-69
2020/12/31 02:27:46;;;;;;;5.08;4.08;;;;;;;12.41;58.16;99197.03;1810975;79;21564;-69
2020/12/31 02:30:13;;;;;;;5.40;4.12;;;;;;;12.41;58.15;99201.03;1785544;79;21144;-69
2020/12/31 02:32:41;;;;;;;7.55;4.30;;;;;;;12.41;58.17;99197.84;1778962;79;21196;-69
2020/12/31 02:35:08;;;;;;;6.20;4.45;;;;;;;12.41;58.16;99199.69;1801538;79;21088;-69
2020/12/31 02:37:35;;;;;;;6.20;3.95;;;;;;;12.41;58.16;99193.85;1778911;79;21142;-69
2020/12/31 02:40:02;;;;;;;4.60;4.17;;;;;;;12.42;58.17;99193.33;1788342;79;21394;-69
2020/12/31 02:42:30;;;;;;;8.43;5.15;;;;;;;12.42;58.18;99196.00;1800587;79;21140;-69
2020/12/31 02:44:57;;;;;;;4.58;4.17;;;;;;;12.41;58.20;99185.05;1770030;79;21354;-68
2020/12/31 02:47:27;;;;;;;5.33;4.30;;;;;;;12.42;58.19;99199.51;1770793;79;21146;-68
2020/12/31 02:49:55;;;;;;;5.42;4.22;;;;;;;12.42;58.19;99188.00;1764769;79;21168;-69
2020/12/31 02:52:22;;;;;;;5.03;4.28;;;;;;;12.43;58.21;99198.99;1779018;79;21621;-67
2020/12/31 02:54:49;;;;;;;5.72;4.60;;;;;;;12.42;58.21;99197.33;1779014;79;21114;-69
2020/12/31 02:57:16;;;;;;;7.28;4.70;;;;;;;12.43;58.22;99196.33;1778902;79;21199;-69
2020/12/31 02:59:44;;;;;;;5.50;4.47;;;;;;;12.43;58.23;99197.14;1793080;79;21555;-69
2020/12/31 03:02:11;;;;;;;5.12;4.62;;;;;;;12.43;58.23;99183.01;1778914;79;21620;-68
2020/12/31 03:04:38;;;;;;;4.90;4.37;;;;;;;12.43;58.25;99179.83;1778876;79;22046;-68
2020/12/31 03:07:05;;;;;;;5.08;4.53;;;;;;;12.43;58.24;99179.83;1779019;79;21113;-69
2020/12/31 03:09:33;;;;;;;5.15;3.90;;;;;;;12.43;58.27;99175.83;1778980;79;21342;-69
2020/12/31 03:12:00;;;;;;;4.92;3.90;;;;;;;12.44;58.25;99175.31;1778923;79;21153;-69
2020/12/31 03:14:27;;;;;;;5.22;4.40;;;;;;;12.44;58.25;99175.31;1780438;79;21169;-69
2020/12/31 03:16:54;;;;;;;4.40;4.00;;;;;;;12.45;58.27;99162.33;1809101;79;21123;-69
2020/12/31 03:19:22;;;;;;;4.22;3.55;;;;;;;12.43;58.26;99159.03;1810997;79;21107;-69
2020/12/31 03:21:49;;;;;;;5.42;4.30;;;;;;;12.44;58.28;99156.67;1779301;79;21375;-67
2020/12/31 03:24:16;;;;;;;5.65;4.08;;;;;;;12.43;58.28;99161.18;1797818;79;21390;-69
2020/12/31 03:26:44;;;;;;;4.90;4.37;;;;;;;12.44;58.29;99160.66;1804488;79;21192;-69
2020/12/31 03:29:11;;;;;;;5.35;4.35;;;;;;;12.44;58.30;99154.00;1795431;79;21152;-68
2020/12/31 03:31:38;;;;;;;7.20;4.45;;;;;;;12.44;58.32;99164.17;1804951;79;21155;-68
2020/12/31 03:34:06;;;;;;;4.70;4.08;;;;;;;12.44;58.32;99153.52;1805217;79;21353;-68
2020/12/31 03:36:33;;;;;;;5.35;4.35;;;;;;;12.44;58.32;99156.18;1809343;79;21163;-68
2020/12/31 03:39:01;;;;;;;4.33;3.72;;;;;;;12.43;58.32;99150.52;1778965;79;21201;-69
2020/12/31 03:41:28;;;;;;;5.78;4.25;;;;;;;12.44;58.35;99158.84;1800206;79;21985;-68
2020/12/31 03:43:55;;;;;;;5.17;4.17;;;;;;;12.43;58.36;99154.52;1810904;79;21096;-68
2020/12/31 03:46:23;;;;;;;5.28;4.50;;;;;;;12.44;58.37;99151.34;1810973;79;21255;-68
2020/12/31 03:48:50;;;;;;;5.62;4.08;;;;;;;12.45;58.37;99153.00;1782046;79;21148;-69
2020/12/31 03:51:17;;;;;;;6.37;4.40;;;;;;;12.40;58.38;99141.61;1792198;79;21153;-69
2020/12/31 03:53:44;;;;;;;5.35;4.33;;;;;;;12.44;58.37;99155.33;1778813;79;21176;-68
2020/12/31 03:56:11;;;;;;;4.55;4.08;;;;;;;12.45;58.37;99155.15;1783194;79;21140;-68
2020/12/31 03:58:38;;;;;;;4.85;4.15;;;;;;;12.46;58.36;99149.30;1810907;79;21365;-69
2020/12/31 04:01:06;;;;;;;4.60;3.92;;;;;;;12.46;58.39;99158.14;1810822;79;21759;-69
2020/12/31 04:03:33;;;;;;;5.75;4.20;;;;;;;12.46;58.37;99146.64;1796051;79;21137;-68
2020/12/31 04:06:01;;;;;;;5.20;4.70;;;;;;;12.46;58.39;99151.48;1779246;79;21644;-68
2020/12/31 04:08:28;;;;;;;5.42;4.40;;;;;;;12.46;58.38;99147.97;1787829;79;21108;-69
2020/12/31 04:10:55;;;;;;;5.00;3.87;;;;;;;12.46;58.41;99159.47;1811047;79;22109;-69
2020/12/31 04:13:23;;;;;;;5.50;4.12;;;;;;;12.47;58.39;99148.30;1811056;79;21155;-69
2020/12/31 04:15:50;;;;;;;5.80;4.50;;;;;;;12.45;58.41;99150.34;1791300;79;21163;-68
2020/12/31 04:18:17;;;;;;;5.28;3.80;;;;;;;12.46;58.43;99152.81;1732391;82;21143;-69
2020/12/31 04:20:45;;;;;;;4.80;4.12;;;;;;;12.46;58.44;99148.81;1733236;81;21188;-69
2020/12/31 04:23:12;;;;;;;5.37;4.22;;;;;;;12.46;58.42;99147.97;1737193;81;21369;-69
2020/12/31 04:25:41;;;;;;;6.47;5.25;;;;;;;12.47;58.43;99152.30;1764266;80;21588;-68
2020/12/31 04:28:08;;;;;;;6.67;5.03;;;;;;;12.46;58.44;99186.59;1772421;80;21131;-68
2020/12/31 04:30:38;;;;;;;5.75;4.37;;;;;;;12.46;58.44;99173.28;1766884;80;21581;-68
2020/12/31 04:33:06;;;;;;;6.10;4.85;;;;;;;12.46;58.47;99165.28;1748846;80;21101;-69
2020/12/31 04:35:33;;;;;;;5.17;4.30;;;;;;;12.46;58.48;99167.47;1768756;80;21373;-68
2020/12/31 04:38:00;;;;;;;6.00;4.62;;;;;;;12.45;58.48;99172.47;1747411;81;21860;-68
2020/12/31 04:40:28;;;;;;;5.55;4.78;;;;;;;12.46;58.50;99180.78;1751521;81;21139;-68
2020/12/31 04:42:55;;;;;;;4.92;4.15;;;;;;;12.46;58.51;99178.61;1761658;80;21188;-69
2020/12/31 04:45:22;;;;;;;5.47;4.90;;;;;;;12.46;58.53;99186.11;1742256;81;21172;-69
2020/12/31 04:48:07;;;;;;;5.28;4.47;;;;;;;12.47;58.54;99198.91;1737641;80;21624;-68
2020/12/31 04:50:38;;;;;;;6.30;4.87;;;;;;;12.46;58.55;99183.94;1749678;80;21121;-69
2020/12/31 04:53:10;;;;;;;5.67;4.60;;;;;;;12.46;58.56;99175.94;1748234;80;21647;-69
2020/12/31 04:55:45;;;;;;;6.30;4.95;;;;;;;12.45;58.57;99187.11;1727506;81;21158;-69
2020/12/31 04:58:14;;;;;;;7.00;4.80;;;;;;;12.46;58.58;99189.27;1753159;81;21126;-70
2020/12/31 05:00:43;;;;;;;6.10;4.75;;;;;;;12.45;58.59;99196.44;1778996;80;21190;-70
2020/12/31 05:03:11;;;;;;;6.30;4.83;;;;;;;12.45;58.59;99201.77;1769484;80;21627;-69
2020/12/31 05:05:38;;;;;;;5.05;4.55;;;;;;;12.45;58.61;99194.29;1746589;81;21166;-68
2020/12/31 05:08:07;;;;;;;5.40;4.25;;;;;;;12.45;58.61;99195.63;1758099;81;21574;-69
2020/12/31 05:10:34;;;;;;;6.22;4.92;;;;;;;12.45;58.60;99200.95;1762034;80;21122;-70
2020/12/31 05:13:05;;;;;;;6.58;5.00;;;;;;;12.45;58.60;99207.61;1748236;80;21439;-69
2020/12/31 05:15:42;;;;;;;7.03;5.72;;;;;;;12.45;58.62;99207.09;1758181;80;21602;-70
2020/12/31 05:18:22;;;;;;;7.20;5.05;;;;;;;12.46;58.62;99197.25;1752050;80;21155;-69
2020/12/31 05:20:51;;;;;;;6.22;4.85;;;;;;;12.46;58.63;99209.24;1739575;81;21173;-69
2020/12/31 05:23:20;;;;;;;6.05;4.55;;;;;;;12.45;58.65;99201.77;1759454;80;21177;-70
2020/12/31 05:25:49;;;;;;;6.17;4.87;;;;;;;12.45;58.64;99204.95;1773884;80;21496;-70
2020/12/31 05:28:27;;;;;;;6.00;4.95;;;;;;;12.45;58.64;99213.75;1773728;80;21153;-70
2020/12/31 05:31:00;;;;;;;7.78;5.60;;;;;;;12.45;58.64;99217.75;1773882;80;21184;-69
2020/12/31 05:33:35;;;;;;;5.87;5.28;;;;;;;12.45;58.63;99227.08;1773426;80;21098;-68
2020/12/31 05:36:25;;;;;;;5.90;4.67;;;;;;;12.46;58.65;99223.89;1767097;80;21410;-69
2020/12/31 05:39:01;;;;;;;7.58;4.80;;;;;;;12.44;58.68;99222.78;1752312;80;21207;-69
2020/12/31 05:41:38;;;;;;;6.90;5.10;;;;;;;12.44;58.71;99228.59;1768873;80;21356;-70
2020/12/31 05:44:09;;;;;;;6.92;5.28;;;;;;;12.43;58.69;99220.30;1756710;80;21115;-69
2020/12/31 05:46:37;;;;;;;6.58;5.22;;;;;;;12.43;58.71;99226.96;1769756;80;21145;-69
2020/12/31 05:49:09;;;;;;;6.28;5.10;;;;;;;12.43;58.72;99232.29;1773777;80;21102;-68
2020/12/31 05:51:39;;;;;;;6.28;5.45;;;;;;;12.44;58.73;99225.93;1773830;80;21209;-68
2020/12/31 05:54:13;;;;;;;6.10;4.45;;;;;;;12.51;58.62;99237.47;1773832;80;21122;-69
2020/12/31 05:56:44;;;;;;;6.53;5.08;;;;;;;12.57;58.48;99234.88;1773747;80;21185;-69
2020/12/31 05:59:22;;;;;;;6.65;5.35;;;;;;;12.57;58.42;99248.20;1764697;79;21639;-69
2020/12/31 06:01:57;;;;;;;7.37;5.80;;;;;;;12.58;58.42;99246.34;1773900;80;21145;-71
2020/12/31 06:04:33;;;;;;;6.45;5.15;;;;;;;12.58;58.42;99247.68;1764780;80;21199;-69
2020/12/31 06:07:04;;;;;;;6.00;5.20;;;;;;;12.58;58.39;99266.33;1766637;80;21171;-70
2020/12/31 06:09:35;;;;;;;6.50;5.08;;;;;;;12.57;58.41;99256.19;1771573;80;21101;-70
2020/12/31 06:12:06;;;;;;;6.00;5.30;;;;;;;12.58;58.41;99257.01;1773910;80;21573;-69
2020/12/31 06:14:35;;;;;;;6.28;5.20;;;;;;;12.58;58.41;99255.67;1769661;80;21109;-69
2020/12/31 06:17:06;;;;;;;7.33;5.10;;;;;;;12.57;58.40;99272.17;1773877;80;21188;-70
2020/12/31 06:19:39;;;;;;;6.65;4.72;;;;;;;12.56;58.42;99256.38;1773695;80;21649;-69
2020/12/31 06:22:11;;;;;;;6.00;4.92;;;;;;;12.56;58.41;99255.05;1773734;80;21676;-69
2020/12/31 06:24:42;;;;;;;8.08;5.58;;;;;;;12.56;58.42;99267.85;1764877;79;21173;-69
2020/12/31 06:27:17;;;;;;;6.95;5.78;;;;;;;12.58;58.44;99256.48;1811668;79;28184;-69
2020/12/31 06:29:50;;;;;;;9.35;6.05;;;;;;;12.55;58.43;99262.19;1781603;79;21205;-68
2020/12/31 06:32:29;;;;;;;6.10;5.15;;;;;;;12.55;58.45;99254.72;1780724;80;21177;-69
2020/12/31 06:35:08;;;;;;;6.85;5.17;;;;;;;12.55;58.45;99256.05;1758439;80;21172;-70
2020/12/31 06:37:36;;;;;;;6.42;5.33;;;;;;;12.53;58.46;99255.42;1765725;80;21040;-69
2020/12/31 06:40:26;;;;;;;7.70;5.58;;;;;;;12.53;58.50;99260.75;1759038;81;21132;-69
2020/12/31 06:43:16;;;;;;;7.40;5.30;;;;;;;12.52;58.50;99257.78;1773153;79;21140;-69
2020/12/31 06:45:48;;;;;;;6.30;5.15;;;;;;;12.51;58.51;99258.27;1775586;79;22321;-70
2020/12/31 06:48:33;;;;;;;5.50;4.53;;;;;;;12.49;58.54;99253.64;1754138;80;21611;-70
2020/12/31 06:51:11;;;;;;;6.80;5.90;;;;;;;12.50;58.59;99255.82;1796106;79;21155;-70
2020/12/31 06:53:47;;;;;;;7.20;5.90;;;;;;;12.48;58.60;99264.52;1783061;79;21127;-70
2020/12/31 06:56:16;;;;;;;7.37;5.90;;;;;;;12.48;58.62;99267.18;1788484;79;21138;-69
2020/12/31 06:58:44;;;;;;;6.85;5.75;;;;;;;12.48;58.64;99265.84;1795248;79;21322;-70
2020/12/31 07:01:28;;;;;;;7.08;6.08;;;;;;;12.48;58.63;99268.52;1768252;79;21983;-69
2020/12/31 07:03:56;;;;;;;6.67;5.80;;;;;;;12.48;58.64;99268.00;1781660;79;21105;-69
2020/12/31 07:06:26;;;;;;;6.95;5.80;;;;;;;12.48;58.64;99265.84;1777230;79;21597;-70
2020/12/31 07:09:00;;;;;;;5.78;4.92;;;;;;;12.47;58.68;99274.33;1771504;80;21590;-70
2020/12/31 07:11:35;;;;;;;7.55;5.47;;;;;;;12.48;58.66;99269.33;1781520;79;21205;-69
2020/12/31 07:14:23;;;;;;;7.80;5.95;;;;;;;12.48;58.65;99265.84;1775056;80;21183;-69
2020/12/31 07:17:03;;;;;;;6.85;6.15;;;;;;;12.47;58.66;99264.19;1792233;79;21154;-70
2020/12/31 07:19:44;;;;;;;6.08;5.47;;;;;;;12.46;58.69;99262.04;1777053;79;21110;-70
2020/12/31 07:22:17;;;;;;;8.95;6.17;;;;;;;12.47;58.70;99268.18;1773530;79;21142;-69
2020/12/31 07:24:50;;;;;;;6.40;5.15;;;;;;;12.47;58.70;99276.17;1754229;80;21378;-70
2020/12/31 07:27:27;;;;;;;8.25;5.65;;;;;;;12.47;58.71;99281.50;1724057;81;21139;-70
2020/12/31 07:30:00;;;;;;;7.55;5.95;;;;;;;12.48;58.74;99285.83;1750629;80;21156;-69
2020/12/31 07:32:49;;;;;;;7.47;5.72;;;;;;;12.47;58.73;99286.31;1775176;80;21123;-69
2020/12/31 07:35:35;;;;;;;6.45;5.80;;;;;;;12.47;58.71;99286.31;1774884;80;21176;-70
2020/12/31 07:38:14;;;;;;;7.03;5.65;;;;;;;12.47;58.76;99286.83;1750300;80;22365;-70
2020/12/31 07:40:50;;;;;;;7.12;6.12;;;;;;;12.46;58.74;99287.83;1760760;80;21606;-69
2020/12/31 07:43:27;;;;;;;6.80;5.47;;;;;;;12.46;58.77;99290.50;1780999;80;21159;-71
2020/12/31 07:46:01;;;;;;;6.47;5.80;;;;;;;12.47;58.77;99296.16;1781122;80;21611;-70
2020/12/31 07:48:28;;;;;;;7.08;5.42;;;;;;;12.47;58.78;99304.96;1760446;80;21120;-70
2020/12/31 07:51:00;;;;;;;8.13;5.35;;;;;;;12.47;58.77;99308.14;1769875;80;21368;-71
2020/12/31 07:56:12;;;;;;;6.95;5.80;;;;;;;12.52;58.76;99308.41;1807056;77;28243;-70
2020/12/31 07:58:39;;;;;;;6.78;5.20;;;;;;;12.48;58.75;99309.30;1770993;78;21174;-69
2020/12/31 08:01:07;;;;;;;7.72;5.58;;;;;;;12.49;58.75;99306.92;1822087;78;21422;-70
2020/12/31 08:03:34;;;;;;;7.80;5.85;;;;;;;12.49;58.75;99308.26;1822012;78;21544;-69
2020/12/31 08:06:04;;;;;;;5.87;5.28;;;;;;;12.51;58.71;99304.08;1819505;78;21131;-69
2020/12/31 08:08:32;;;;;;;7.47;5.67;;;;;;;12.53;58.70;99306.05;1821983;78;21146;-69
2020/12/31 08:11:10;;;;;;;6.67;5.42;;;;;;;12.64;58.53;99312.19;1822055;78;21179;-69
2020/12/31 08:13:38;;;;;;;6.20;5.22;;;;;;;12.68;58.43;99309.45;1813575;78;21263;-70
2020/12/31 08:16:07;;;;;;;6.70;5.72;;;;;;;12.69;58.40;99315.60;1784100;78;21106;-70
2020/12/31 08:18:34;;;;;;;6.33;5.35;;;;;;;12.68;58.38;99314.78;1803533;78;21168;-69
2020/12/31 08:21:04;;;;;;;8.48;5.92;;;;;;;12.68;58.36;99305.45;1790234;78;21136;-70
2020/12/31 08:23:41;;;;;;;6.03;5.42;;;;;;;12.68;58.35;99312.12;1801923;78;21120;-69
2020/12/31 08:26:12;;;;;;;7.78;6.45;;;;;;;12.69;58.33;99302.27;1779590;78;22163;-70
2020/12/31 08:28:44;;;;;;;6.62;5.80;;;;;;;12.69;58.32;99297.80;1767845;78;21214;-70
2020/12/31 08:31:15;;;;;;;8.28;6.17;;;;;;;12.68;58.33;99299.31;1767728;78;21194;-70
2020/12/31 08:33:43;;;;;;;7.67;5.85;;;;;;;12.67;58.34;99297.16;1820725;78;21137;-69
2020/12/31 08:36:11;;;;;;;7.40;5.70;;;;;;;12.67;58.35;99301.16;1793592;79;21661;-70
2020/12/31 08:38:39;;;;;;;6.37;5.75;;;;;;;12.68;58.36;99296.64;1792271;79;21341;-70
2020/12/31 08:41:08;;;;;;;5.92;5.28;;;;;;;12.68;58.36;99300.13;1776892;79;21163;-70
2020/12/31 08:43:38;;;;;;;7.75;6.15;;;;;;;12.67;58.37;99294.98;1809919;78;21181;-69
2020/12/31 08:46:08;;;;;;;7.30;6.10;;;;;;;12.66;58.35;99290.17;1791513;78;21135;-71
2020/12/31 08:48:36;;;;;;;7.15;5.75;;;;;;;12.68;58.37;99293.98;1795165;78;21149;-70
2020/12/31 08:51:14;;;;;;;6.87;6.03;;;;;;;12.67;58.39;99292.32;1802290;78;21419;-70
2020/12/31 08:53:50;;;;;;;7.08;5.72;;;;;;;12.66;58.38;99300.02;1797813;78;21184;-70
2020/12/31 08:56:18;;;;;;;7.53;6.12;;;;;;;12.66;58.41;99290.69;1764178;79;21150;-69
2020/12/31 08:58:45;;;;;;;7.03;6.05;;;;;;;12.65;58.42;99288.53;1752496;79;21162;-70
2020/12/31 09:01:26;;;;;;;6.87;5.83;;;;;;;12.65;58.43;99287.20;1782761;80;21522;-71
2020/12/31 09:04:10;;;;;;;6.50;5.72;;;;;;;12.64;58.43;99293.53;1759262;80;22212;-70
2020/12/31 09:06:44;;;;;;;7.65;5.92;;;;;;;12.65;58.46;99296.53;1759579;81;21178;-70
2020/12/31 09:09:23;;;;;;;7.33;6.20;;;;;;;12.62;58.48;99291.58;1768345;78;21144;-69
2020/12/31 09:12:04;;;;;;;7.85;6.30;;;;;;;12.63;58.50;99289.21;1769721;80;21094;-69
2020/12/31 09:14:32;;;;;;;7.45;6.15;;;;;;;12.63;58.54;99298.53;1788706;80;21121;-70
2020/12/31 09:16:59;;;;;;;7.87;5.87;;;;;;;12.63;58.53;99291.05;1789479;80;22268;-70
2020/12/31 09:19:26;;;;;;;6.92;5.85;;;;;;;12.62;58.56;99286.25;1767320;78;21179;-70
2020/12/31 09:21:54;;;;;;;7.00;5.83;;;;;;;12.63;58.56;99297.20;1735755;80;21188;-69
2020/12/31 09:24:22;;;;;;;7.72;6.47;;;;;;;12.62;58.58;99286.25;1789329;80;21126;-70
2020/12/31 09:26:57;;;;;;;8.73;6.90;;;;;;;12.64;58.56;99299.38;1789330;79;21549;-70
2020/12/31 09:29:27;;;;;;;7.55;5.75;;;;;;;12.64;58.56;99296.20;1787927;80;21195;-70
2020/12/31 09:31:54;;;;;;;7.92;6.60;;;;;;;12.64;58.57;99288.20;1787018;80;21561;-70
2020/12/31 09:34:22;;;;;;;7.33;5.90;;;;;;;12.64;58.57;99290.88;1742119;80;21144;-69
2020/12/31 09:36:50;;;;;;;6.67;5.50;;;;;;;12.65;58.57;99288.53;1780048;80;21136;-69
2020/12/31 09:39:17;;;;;;;6.60;5.87;;;;;;;12.65;58.56;99288.53;1758342;80;21155;-70
2020/12/31 09:41:47;;;;;;;6.90;5.58;;;;;;;12.66;58.59;99285.36;1757694;80;21393;-70
2020/12/31 09:44:14;;;;;;;7.50;5.75;;;;;;;12.66;58.59;99276.03;1756592;79;21153;-69
2020/12/31 09:46:42;;;;;;;8.18;6.15;;;;;;;12.67;58.59;99280.33;1773218;80;21117;-70
2020/12/31 09:49:09;;;;;;;6.70;5.85;;;;;;;12.66;58.56;99282.17;1783453;79;21179;-70
2020/12/31 09:51:36;;;;;;;9.35;6.15;;;;;;;12.67;58.56;99279.84;1758160;80;22129;-69
2020/12/31 09:54:04;;;;;;;7.97;5.95;;;;;;;12.68;58.57;99277.47;1769599;79;21828;-70
2020/12/31 09:56:31;;;;;;;7.00;5.72;;;;;;;12.68;58.57;99273.48;1763135;79;21151;-71
2020/12/31 09:58:59;;;;;;;8.25;6.47;;;;;;;12.68;58.57;99277.47;1789270;78;21148;-69
2020/12/31 10:01:26;;;;;;;8.33;5.72;;;;;;;12.69;58.57;99271.63;1788425;80;21168;-69
2020/12/31 10:03:54;;;;;;;7.83;6.12;;;;;;;12.70;58.53;99268.77;1757401;80;21123;-69
2020/12/31 10:06:21;;;;;;;7.90;5.90;;;;;;;12.71;58.54;99280.25;1789192;79;21208;-69
2020/12/31 10:08:54;;;;;;;8.53;6.80;;;;;;;12.72;58.50;99268.07;1789155;80;21161;-70
2020/12/31 10:11:21;;;;;;;8.00;5.97;;;;;;;12.72;58.50;99261.92;1784049;78;21171;-69
2020/12/31 10:13:48;;;;;;;8.30;5.80;;;;;;;12.72;58.51;99261.41;1752688;80;21461;-69
2020/12/31 10:16:16;;;;;;;7.22;5.78;;;;;;;12.73;58.50;99256.92;1785709;79;21131;-70
2020/12/31 10:18:43;;;;;;;7.47;5.65;;;;;;;12.73;58.50;99251.59;1759263;81;22245;-71
2020/12/31 10:21:12;;;;;;;7.17;5.78;;;;;;;12.73;58.50;99248.41;1787995;78;21576;-69
2020/12/31 10:23:39;;;;;;;7.55;5.87;;;;;;;12.74;58.51;99248.70;1712058;81;21164;-70
2020/12/31 10:26:06;;;;;;;7.08;5.67;;;;;;;12.74;58.53;99253.22;1789254;80;21740;-70
2020/12/31 10:28:34;;;;;;;7.25;6.10;;;;;;;12.74;58.51;99242.05;1781300;78;21178;-69
2020/12/31 10:31:01;;;;;;;5.92;5.33;;;;;;;12.75;58.51;99242.38;1775758;80;21321;-69
2020/12/31 10:33:29;;;;;;;6.78;5.35;;;;;;;12.75;58.51;99238.37;1789073;80;21160;-69
2020/12/31 10:35:56;;;;;;;6.70;5.80;;;;;;;12.75;58.49;99239.71;1789185;78;21171;-69
2020/12/31 10:38:23;;;;;;;7.62;5.97;;;;;;;12.76;58.50;99244.01;1787772;80;21149;-71
2020/12/31 10:40:50;;;;;;;7.15;6.03;;;;;;;12.77;58.46;99246.19;1789288;80;21107;-70
2020/12/31 10:43:17;;;;;;;5.97;5.37;;;;;;;12.77;58.46;99239.00;1789251;78;21590;-70
2020/12/31 10:45:44;;;;;;;6.20;5.60;;;;;;;12.78;58.47;99229.97;1788337;80;21196;-68
2020/12/31 10:48:13;;;;;;;7.15;6.05;;;;;;;12.77;58.46;99217.69;1739416;80;21167;-69
2020/12/31 10:50:40;;;;;;;6.92;5.87;;;;;;;12.78;58.46;99215.31;1758022;80;21150;-69
2020/12/31 10:53:08;;;;;;;6.30;5.33;;;;;;;12.79;58.49;99220.98;1758278;81;21180;-69
2020/12/31 10:55:35;;;;;;;7.05;5.60;;;;;;;12.78;58.45;99216.64;1765335;79;22565;-70
2020/12/31 10:58:04;;;;;;;7.53;5.40;;;;;;;12.80;58.46;99219.12;1761698;81;21172;-69
2020/12/31 11:00:32;;;;;;;7.15;5.75;;;;;;;12.79;58.48;99220.98;1763142;81;21157;-69
2020/12/31 11:02:59;;;;;;;6.30;5.15;;;;;;;12.80;58.45;99220.45;1763134;81;21158;-70
2020/12/31 11:05:26;;;;;;;6.65;5.30;;;;;;;12.81;58.45;99219.97;1779035;80;21118;-69
2020/12/31 11:07:53;;;;;;;7.53;6.03;;;;;;;12.82;58.44;99217.60;1779026;80;21438;-70
2020/12/31 11:10:21;;;;;;;6.72;5.33;;;;;;;12.82;58.43;99210.94;1778865;80;21721;-74
2020/12/31 11:12:48;;;;;;;6.33;5.62;;;;;;;12.82;58.43;99205.61;1766997;80;21155;-70
2020/12/31 11:15:15;;;;;;;6.15;5.00;;;;;;;12.82;58.44;99209.61;1763426;80;21152;-70
2020/12/31 11:17:43;;;;;;;6.05;5.28;;;;;;;12.82;58.44;99210.94;1763464;80;21157;-69
2020/12/31 11:20:10;;;;;;;6.15;5.30;;;;;;;12.82;58.43;99215.75;1752782;80;21375;-69
2020/12/31 11:22:37;;;;;;;6.33;5.50;;;;;;;12.83;58.45;99217.94;1763327;80;21629;-70
2020/12/31 11:25:04;;;;;;;5.75;4.95;;;;;;;12.82;58.48;99217.09;1774291;80;21145;-69
2020/12/31 11:27:32;;;;;;;6.15;5.55;;;;;;;12.83;58.47;99213.42;1763325;80;21584;-70
2020/12/31 11:29:59;;;;;;;6.58;5.85;;;;;;;12.83;58.47;99216.59;1775408;80;21150;-70
2020/12/31 11:32:27;;;;;;;5.58;4.75;;;;;;;12.84;58.46;99220.89;1778974;80;21261;-70
2020/12/31 11:34:54;;;;;;;7.25;5.22;;;;;;;12.84;58.47;99218.23;1766930;80;21159;-70
2020/12/31 11:37:21;;;;;;;5.62;5.12;;;;;;;12.84;58.47;99216.37;1769290;80;21177;-70
2020/12/31 11:40:38;;;;;;;6.72;5.10;;;;;;;12.88;58.49;99218.15;1827390;76;28268;-70
2020/12/31 11:43:05;;;;;;;6.33;5.47;;;;;;;12.84;58.48;99219.05;1793897;79;21158;-69
2020/12/31 11:45:32;;;;;;;6.72;5.90;;;;;;;12.86;58.48;99220.19;1810405;79;21193;-69
2020/12/31 11:47:59;;;;;;;6.25;5.25;;;;;;;12.85;58.49;99214.56;1778213;79;21109;-70
2020/12/31 11:50:27;;;;;;;6.62;5.25;;;;;;;12.86;58.47;99212.19;1772664;80;21150;-70